sensor_id;sensor_type;location;lat;lon;timestamp;P1;durP1;ratioP1;P2;durP2;ratioP2
44508;SDS011;30214;52.246;14.408;2023-03-01T00:01:07;9.88;;;4.78;;
44508;SDS011;30214;52.246;14.408;2023-03-01T00:03:37;7.78;;;3.80;;
44508;SDS011;30214;52.246;14.408;2023-03-01T00:06:05;9.25;;;4.28;;
44508;SDS011;30214;52.246;14.408;2023-03-01T00:08:34;8.18;;;4.20;;
44508;SDS011;30214;52.246;14.408;2023-03-01T00:11:03;7.78;;;3.78;;
44508;SDS011;30214;52.246;14.408;2023-03-01T00:13:33;6.85;;;3.90;;
44508;SDS011;30214;52.246;14.408;2023-03-01T00:16:01;8.82;;;4.10;;
44508;SDS011;30214;52.246;14.408;2023-03-01T00:18:29;9.05;;;4.35;;
44508;SDS011;30214;52.246;14.408;2023-03-01T00:20:56;9.93;;;4.28;;
44508;SDS011;30214;52.246;14.408;2023-03-01T00:23:24;9.45;;;3.95;;
44508;SDS011;30214;52.246;14.408;2023-03-01T00:25:53;7.82;;;4.07;;
44508;SDS011;30214;52.246;14.408;2023-03-01T00:28:20;8.40;;;4.28;;
44508;SDS011;30214;52.246;14.408;2023-03-01T00:30:47;7.20;;;3.85;;
44508;SDS011;30214;52.246;14.408;2023-03-01T00:33:14;8.85;;;4.63;;
44508;SDS011;30214;52.246;14.408;2023-03-01T00:35:41;12.45;;;4.97;;
44508;SDS011;30214;52.246;14.408;2023-03-01T00:38:09;7.18;;;4.00;;
44508;SDS011;30214;52.246;14.408;2023-03-01T00:40:36;7.75;;;4.22;;
44508;SDS011;30214;52.246;14.408;2023-03-01T00:43:05;9.27;;;4.13;;
44508;SDS011;30214;52.246;14.408;2023-03-01T00:45:32;10.18;;;4.18;;
44508;SDS011;30214;52.246;14.408;2023-03-01T00:47:59;9.18;;;4.68;;
44508;SDS011;30214;52.246;14.408;2023-03-01T00:50:26;8.93;;;4.53;;
44508;SDS011;30214;52.246;14.408;2023-03-01T00:52:54;8.20;;;4.47;;
44508;SDS011;30214;52.246;14.408;2023-03-01T00:55:22;7.82;;;4.25;;
44508;SDS011;30214;52.246;14.408;2023-03-01T00:57:50;9.10;;;5.20;;
44508;SDS011;30214;52.246;14.408;2023-03-01T01:00:18;8.38;;;4.43;;
44508;SDS011;30214;52.246;14.408;2023-03-01T01:02:47;9.52;;;4.60;;
44508;SDS011;30214;52.246;14.408;2023-03-01T01:05:15;9.60;;;4.90;;
44508;SDS011;30214;52.246;14.408;2023-03-01T01:07:45;10.07;;;4.95;;
44508;SDS011;30214;52.246;14.408;2023-03-01T01:10:13;9.40;;;4.72;;
44508;SDS011;30214;52.246;14.408;2023-03-01T01:12:42;8.35;;;4.75;;
44508;SDS011;30214;52.246;14.408;2023-03-01T01:15:11;10.25;;;5.00;;
44508;SDS011;30214;52.246;14.408;2023-03-01T01:17:43;6.68;;;3.83;;
44508;SDS011;30214;52.246;14.408;2023-03-01T01:20:10;6.95;;;4.15;;
44508;SDS011;30214;52.246;14.408;2023-03-01T01:22:38;8.77;;;4.55;;
44508;SDS011;30214;52.246;14.408;2023-03-01T01:25:05;8.00;;;3.92;;
44508;SDS011;30214;52.246;14.408;2023-03-01T01:27:33;8.55;;;4.75;;
44508;SDS011;30214;52.246;14.408;2023-03-01T01:30:00;8.27;;;4.25;;
44508;SDS011;30214;52.246;14.408;2023-03-01T01:32:28;8.63;;;4.55;;
44508;SDS011;30214;52.246;14.408;2023-03-01T01:34:57;8.48;;;4.70;;
44508;SDS011;30214;52.246;14.408;2023-03-01T01:37:24;9.82;;;4.38;;
44508;SDS011;30214;52.246;14.408;2023-03-01T01:39:56;9.05;;;4.22;;
44508;SDS011;30214;52.246;14.408;2023-03-01T01:42:24;6.95;;;3.85;;
44508;SDS011;30214;52.246;14.408;2023-03-01T01:47:57;8.27;;;4.00;;
44508;SDS011;30214;52.246;14.408;2023-03-01T01:50:30;8.93;;;3.72;;
44508;SDS011;30214;52.246;14.408;2023-03-01T01:53:04;15.68;;;4.55;;
44508;SDS011;30214;52.246;14.408;2023-03-01T01:55:33;7.20;;;3.85;;
44508;SDS011;30214;52.246;14.408;2023-03-01T01:58:04;8.60;;;4.20;;
44508;SDS011;30214;52.246;14.408;2023-03-01T02:00:34;10.75;;;4.25;;
44508;SDS011;30214;52.246;14.408;2023-03-01T02:03:02;8.63;;;3.95;;
44508;SDS011;30214;52.246;14.408;2023-03-01T02:05:36;9.75;;;4.43;;
44508;SDS011;30214;52.246;14.408;2023-03-01T02:08:11;6.65;;;3.90;;
44508;SDS011;30214;52.246;14.408;2023-03-01T02:10:41;14.02;;;5.97;;
44508;SDS011;30214;52.246;14.408;2023-03-01T02:13:09;92.80;;;22.75;;
44508;SDS011;30214;52.246;14.408;2023-03-01T02:15:37;237.82;;;59.90;;
44508;SDS011;30214;52.246;14.408;2023-03-01T02:18:09;143.27;;;36.40;;
44508;SDS011;30214;52.246;14.408;2023-03-01T02:20:42;94.45;;;27.83;;
44508;SDS011;30214;52.246;14.408;2023-03-01T02:23:16;58.75;;;17.10;;
44508;SDS011;30214;52.246;14.408;2023-03-01T02:25:47;35.40;;;12.77;;
44508;SDS011;30214;52.246;14.408;2023-03-01T02:28:24;16.65;;;7.50;;
44508;SDS011;30214;52.246;14.408;2023-03-01T02:30:55;9.63;;;4.78;;
44508;SDS011;30214;52.246;14.408;2023-03-01T02:33:40;8.45;;;4.13;;
44508;SDS011;30214;52.246;14.408;2023-03-01T02:36:09;7.85;;;4.15;;
44508;SDS011;30214;52.246;14.408;2023-03-01T02:38:41;16.80;;;7.28;;
44508;SDS011;30214;52.246;14.408;2023-03-01T02:41:08;94.43;;;34.45;;
44508;SDS011;30214;52.246;14.408;2023-03-01T02:43:40;180.50;;;61.17;;
44508;SDS011;30214;52.246;14.408;2023-03-01T02:46:08;151.70;;;54.13;;
44508;SDS011;30214;52.246;14.408;2023-03-01T02:51:13;82.53;;;32.40;;
44508;SDS011;30214;52.246;14.408;2023-03-01T02:54:07;81.25;;;30.33;;
44508;SDS011;30214;52.246;14.408;2023-03-01T02:56:42;66.82;;;26.60;;
44508;SDS011;30214;52.246;14.408;2023-03-01T02:59:15;40.17;;;16.27;;
44508;SDS011;30214;52.246;14.408;2023-03-01T03:01:45;22.45;;;9.55;;
44508;SDS011;30214;52.246;14.408;2023-03-01T03:04:14;21.45;;;8.60;;
44508;SDS011;30214;52.246;14.408;2023-03-01T03:06:46;16.35;;;7.97;;
44508;SDS011;30214;52.246;14.408;2023-03-01T03:09:14;13.93;;;5.80;;
44508;SDS011;30214;52.246;14.408;2023-03-01T03:11:44;11.65;;;5.30;;
44508;SDS011;30214;52.246;14.408;2023-03-01T03:14:13;10.35;;;4.97;;
44508;SDS011;30214;52.246;14.408;2023-03-01T03:16:46;13.13;;;5.80;;
44508;SDS011;30214;52.246;14.408;2023-03-01T03:19:16;10.55;;;4.97;;
44508;SDS011;30214;52.246;14.408;2023-03-01T03:21:44;11.13;;;5.35;;
44508;SDS011;30214;52.246;14.408;2023-03-01T03:24:11;9.02;;;4.82;;
44508;SDS011;30214;52.246;14.408;2023-03-01T03:26:38;9.32;;;4.70;;
44508;SDS011;30214;52.246;14.408;2023-03-01T03:29:06;8.30;;;4.40;;
44508;SDS011;30214;52.246;14.408;2023-03-01T03:31:34;6.65;;;3.85;;
44508;SDS011;30214;52.246;14.408;2023-03-01T03:34:01;7.95;;;4.00;;
44508;SDS011;30214;52.246;14.408;2023-03-01T03:36:28;9.38;;;4.93;;
44508;SDS011;30214;52.246;14.408;2023-03-01T03:38:55;9.07;;;4.50;;
44508;SDS011;30214;52.246;14.408;2023-03-01T03:41:22;11.32;;;4.93;;
44508;SDS011;30214;52.246;14.408;2023-03-01T03:43:49;8.70;;;4.38;;
44508;SDS011;30214;52.246;14.408;2023-03-01T03:46:17;7.55;;;4.03;;
44508;SDS011;30214;52.246;14.408;2023-03-01T03:48:45;9.27;;;4.60;;
44508;SDS011;30214;52.246;14.408;2023-03-01T03:51:12;9.98;;;4.80;;
44508;SDS011;30214;52.246;14.408;2023-03-01T03:53:41;9.82;;;4.80;;
44508;SDS011;30214;52.246;14.408;2023-03-01T03:56:09;9.85;;;5.15;;
44508;SDS011;30214;52.246;14.408;2023-03-01T03:58:36;9.80;;;4.55;;
44508;SDS011;30214;52.246;14.408;2023-03-01T04:01:04;8.90;;;4.70;;
44508;SDS011;30214;52.246;14.408;2023-03-01T04:03:31;8.40;;;4.82;;
44508;SDS011;30214;52.246;14.408;2023-03-01T04:06:01;8.63;;;4.68;;
44508;SDS011;30214;52.246;14.408;2023-03-01T04:08:31;10.18;;;5.78;;
44508;SDS011;30214;52.246;14.408;2023-03-01T04:10:59;10.75;;;5.00;;
44508;SDS011;30214;52.246;14.408;2023-03-01T04:13:48;9.45;;;5.10;;
44508;SDS011;30214;52.246;14.408;2023-03-01T04:16:15;10.68;;;5.22;;
44508;SDS011;30214;52.246;14.408;2023-03-01T04:18:43;9.10;;;4.95;;
44508;SDS011;30214;52.246;14.408;2023-03-01T04:21:12;8.73;;;5.00;;
44508;SDS011;30214;52.246;14.408;2023-03-01T04:23:39;8.30;;;4.50;;
44508;SDS011;30214;52.246;14.408;2023-03-01T04:26:07;10.27;;;5.00;;
44508;SDS011;30214;52.246;14.408;2023-03-01T04:28:35;7.88;;;4.60;;
44508;SDS011;30214;52.246;14.408;2023-03-01T04:31:05;12.02;;;5.38;;
44508;SDS011;30214;52.246;14.408;2023-03-01T04:33:39;10.57;;;4.90;;
44508;SDS011;30214;52.246;14.408;2023-03-01T04:36:07;9.43;;;5.07;;
44508;SDS011;30214;52.246;14.408;2023-03-01T04:38:37;9.80;;;5.07;;
44508;SDS011;30214;52.246;14.408;2023-03-01T04:41:05;9.35;;;4.40;;
44508;SDS011;30214;52.246;14.408;2023-03-01T04:43:34;9.00;;;4.50;;
44508;SDS011;30214;52.246;14.408;2023-03-01T04:46:02;9.55;;;4.65;;
44508;SDS011;30214;52.246;14.408;2023-03-01T04:48:31;7.88;;;4.57;;
44508;SDS011;30214;52.246;14.408;2023-03-01T04:50:58;8.52;;;4.68;;
44508;SDS011;30214;52.246;14.408;2023-03-01T04:53:26;8.82;;;4.50;;
44508;SDS011;30214;52.246;14.408;2023-03-01T04:55:58;10.13;;;4.93;;
44508;SDS011;30214;52.246;14.408;2023-03-01T04:58:26;10.32;;;5.70;;
44508;SDS011;30214;52.246;14.408;2023-03-01T05:00:54;11.23;;;5.05;;
44508;SDS011;30214;52.246;14.408;2023-03-01T05:03:22;11.38;;;4.70;;
44508;SDS011;30214;52.246;14.408;2023-03-01T05:05:50;14.38;;;5.45;;
44508;SDS011;30214;52.246;14.408;2023-03-01T05:08:18;7.60;;;3.83;;
44508;SDS011;30214;52.246;14.408;2023-03-01T05:10:47;9.52;;;5.07;;
44508;SDS011;30214;52.246;14.408;2023-03-01T05:13:19;9.43;;;4.78;;
44508;SDS011;30214;52.246;14.408;2023-03-01T05:15:47;9.07;;;4.68;;
44508;SDS011;30214;52.246;14.408;2023-03-01T05:18:20;9.55;;;4.90;;
44508;SDS011;30214;52.246;14.408;2023-03-01T05:20:50;10.32;;;4.45;;
44508;SDS011;30214;52.246;14.408;2023-03-01T05:23:18;9.65;;;5.00;;
44508;SDS011;30214;52.246;14.408;2023-03-01T05:25:45;11.15;;;5.70;;
44508;SDS011;30214;52.246;14.408;2023-03-01T05:28:12;12.05;;;5.95;;
44508;SDS011;30214;52.246;14.408;2023-03-01T05:30:41;8.88;;;5.60;;
44508;SDS011;30214;52.246;14.408;2023-03-01T05:33:08;11.00;;;5.50;;
44508;SDS011;30214;52.246;14.408;2023-03-01T05:35:38;10.82;;;6.22;;
44508;SDS011;30214;52.246;14.408;2023-03-01T05:38:07;9.35;;;5.18;;
44508;SDS011;30214;52.246;14.408;2023-03-01T05:40:38;11.13;;;5.03;;
44508;SDS011;30214;52.246;14.408;2023-03-01T05:43:06;8.95;;;4.65;;
44508;SDS011;30214;52.246;14.408;2023-03-01T05:45:35;8.18;;;4.40;;
44508;SDS011;30214;52.246;14.408;2023-03-01T05:48:05;8.05;;;4.43;;
44508;SDS011;30214;52.246;14.408;2023-03-01T05:50:34;10.80;;;4.82;;
44508;SDS011;30214;52.246;14.408;2023-03-01T05:53:05;7.35;;;4.47;;
44508;SDS011;30214;52.246;14.408;2023-03-01T05:55:35;9.07;;;5.30;;
44508;SDS011;30214;52.246;14.408;2023-03-01T05:58:03;8.98;;;4.80;;
44508;SDS011;30214;52.246;14.408;2023-03-01T06:00:32;9.23;;;4.97;;
44508;SDS011;30214;52.246;14.408;2023-03-01T06:03:00;9.43;;;4.60;;
44508;SDS011;30214;52.246;14.408;2023-03-01T06:05:29;10.23;;;4.30;;
44508;SDS011;30214;52.246;14.408;2023-03-01T06:07:58;8.73;;;4.43;;
44508;SDS011;30214;52.246;14.408;2023-03-01T06:10:27;7.95;;;4.40;;
44508;SDS011;30214;52.246;14.408;2023-03-01T06:12:55;9.55;;;4.30;;
44508;SDS011;30214;52.246;14.408;2023-03-01T06:15:23;11.70;;;6.13;;
44508;SDS011;30214;52.246;14.408;2023-03-01T06:17:51;8.77;;;4.85;;
44508;SDS011;30214;52.246;14.408;2023-03-01T06:20:21;9.57;;;5.13;;
44508;SDS011;30214;52.246;14.408;2023-03-01T06:22:52;11.07;;;4.60;;
44508;SDS011;30214;52.246;14.408;2023-03-01T06:25:20;8.30;;;4.10;;
44508;SDS011;30214;52.246;14.408;2023-03-01T06:27:49;9.52;;;4.68;;
44508;SDS011;30214;52.246;14.408;2023-03-01T06:30:17;8.77;;;4.32;;
44508;SDS011;30214;52.246;14.408;2023-03-01T06:32:46;9.93;;;4.38;;
44508;SDS011;30214;52.246;14.408;2023-03-01T06:35:14;8.35;;;4.28;;
44508;SDS011;30214;52.246;14.408;2023-03-01T06:37:43;10.43;;;4.40;;
44508;SDS011;30214;52.246;14.408;2023-03-01T06:40:13;12.95;;;5.13;;
44508;SDS011;30214;52.246;14.408;2023-03-01T06:42:41;7.97;;;4.13;;
44508;SDS011;30214;52.246;14.408;2023-03-01T06:45:10;10.45;;;5.22;;
44508;SDS011;30214;52.246;14.408;2023-03-01T06:47:37;13.20;;;6.25;;
44508;SDS011;30214;52.246;14.408;2023-03-01T06:50:05;15.32;;;6.97;;
44508;SDS011;30214;52.246;14.408;2023-03-01T06:52:33;12.65;;;6.68;;
44508;SDS011;30214;52.246;14.408;2023-03-01T06:55:01;14.85;;;6.60;;
44508;SDS011;30214;52.246;14.408;2023-03-01T06:57:29;13.88;;;7.05;;
44508;SDS011;30214;52.246;14.408;2023-03-01T06:59:56;20.00;;;9.18;;
44508;SDS011;30214;52.246;14.408;2023-03-01T07:02:23;18.70;;;8.23;;
44508;SDS011;30214;52.246;14.408;2023-03-01T07:04:51;16.38;;;7.40;;
44508;SDS011;30214;52.246;14.408;2023-03-01T07:07:18;14.68;;;7.85;;
44508;SDS011;30214;52.246;14.408;2023-03-01T07:09:45;20.33;;;8.43;;
44508;SDS011;30214;52.246;14.408;2023-03-01T07:12:12;19.83;;;8.85;;
44508;SDS011;30214;52.246;14.408;2023-03-01T07:14:41;17.77;;;7.90;;
44508;SDS011;30214;52.246;14.408;2023-03-01T07:17:10;18.02;;;8.95;;
44508;SDS011;30214;52.246;14.408;2023-03-01T07:19:37;25.65;;;12.15;;
44508;SDS011;30214;52.246;14.408;2023-03-01T07:22:04;27.92;;;14.07;;
44508;SDS011;30214;52.246;14.408;2023-03-01T07:24:32;31.40;;;15.38;;
44508;SDS011;30214;52.246;14.408;2023-03-01T07:26:59;18.45;;;9.82;;
44508;SDS011;30214;52.246;14.408;2023-03-01T07:29:26;18.80;;;9.32;;
44508;SDS011;30214;52.246;14.408;2023-03-01T07:31:55;16.45;;;7.97;;
44508;SDS011;30214;52.246;14.408;2023-03-01T07:34:23;12.98;;;7.38;;
44508;SDS011;30214;52.246;14.408;2023-03-01T07:36:50;11.80;;;6.03;;
44508;SDS011;30214;52.246;14.408;2023-03-01T07:39:17;12.35;;;7.03;;
44508;SDS011;30214;52.246;14.408;2023-03-01T07:41:44;15.18;;;7.45;;
44508;SDS011;30214;52.246;14.408;2023-03-01T07:44:11;13.57;;;7.30;;
44508;SDS011;30214;52.246;14.408;2023-03-01T07:46:38;15.02;;;6.60;;
44508;SDS011;30214;52.246;14.408;2023-03-01T07:49:07;15.52;;;7.78;;
44508;SDS011;30214;52.246;14.408;2023-03-01T07:51:34;16.02;;;8.02;;
44508;SDS011;30214;52.246;14.408;2023-03-01T07:54:01;16.13;;;7.88;;
44508;SDS011;30214;52.246;14.408;2023-03-01T07:56:28;17.75;;;9.30;;
44508;SDS011;30214;52.246;14.408;2023-03-01T07:58:55;15.50;;;8.52;;
44508;SDS011;30214;52.246;14.408;2023-03-01T08:01:22;14.82;;;8.40;;
44508;SDS011;30214;52.246;14.408;2023-03-01T08:03:49;17.08;;;8.30;;
44508;SDS011;30214;52.246;14.408;2023-03-01T08:06:18;14.77;;;8.48;;
44508;SDS011;30214;52.246;14.408;2023-03-01T08:08:45;11.57;;;6.75;;
44508;SDS011;30214;52.246;14.408;2023-03-01T08:11:13;13.98;;;7.47;;
44508;SDS011;30214;52.246;14.408;2023-03-01T08:13:41;13.63;;;6.65;;
44508;SDS011;30214;52.246;14.408;2023-03-01T08:16:10;13.02;;;6.78;;
44508;SDS011;30214;52.246;14.408;2023-03-01T08:18:38;13.82;;;6.93;;
44508;SDS011;30214;52.246;14.408;2023-03-01T08:21:07;11.90;;;6.75;;
44508;SDS011;30214;52.246;14.408;2023-03-01T08:23:38;12.25;;;7.03;;
44508;SDS011;30214;52.246;14.408;2023-03-01T08:26:06;12.43;;;7.18;;
44508;SDS011;30214;52.246;14.408;2023-03-01T08:28:35;13.48;;;6.20;;
44508;SDS011;30214;52.246;14.408;2023-03-01T08:31:03;13.55;;;7.13;;
44508;SDS011;30214;52.246;14.408;2023-03-01T08:33:42;12.18;;;6.38;;
44508;SDS011;30214;52.246;14.408;2023-03-01T08:36:15;15.48;;;7.00;;
44508;SDS011;30214;52.246;14.408;2023-03-01T08:38:44;12.73;;;6.75;;
44508;SDS011;30214;52.246;14.408;2023-03-01T08:41:11;15.77;;;6.97;;
44508;SDS011;30214;52.246;14.408;2023-03-01T08:43:39;12.98;;;7.47;;
44508;SDS011;30214;52.246;14.408;2023-03-01T08:46:06;16.77;;;7.72;;
44508;SDS011;30214;52.246;14.408;2023-03-01T08:48:33;17.92;;;9.40;;
44508;SDS011;30214;52.246;14.408;2023-03-01T08:51:06;16.60;;;9.07;;
44508;SDS011;30214;52.246;14.408;2023-03-01T08:53:35;15.50;;;9.07;;
44508;SDS011;30214;52.246;14.408;2023-03-01T08:56:03;17.35;;;9.57;;
44508;SDS011;30214;52.246;14.408;2023-03-01T08:58:31;17.10;;;8.40;;
44508;SDS011;30214;52.246;14.408;2023-03-01T09:00:58;16.30;;;8.57;;
44508;SDS011;30214;52.246;14.408;2023-03-01T09:03:25;18.80;;;10.32;;
44508;SDS011;30214;52.246;14.408;2023-03-01T09:05:53;21.95;;;11.13;;
44508;SDS011;30214;52.246;14.408;2023-03-01T09:08:26;17.75;;;9.85;;
44508;SDS011;30214;52.246;14.408;2023-03-01T09:10:53;17.63;;;9.40;;
44508;SDS011;30214;52.246;14.408;2023-03-01T09:13:22;18.63;;;8.52;;
44508;SDS011;30214;52.246;14.408;2023-03-01T09:15:50;13.65;;;7.40;;
44508;SDS011;30214;52.246;14.408;2023-03-01T09:18:17;18.52;;;8.75;;
44508;SDS011;30214;52.246;14.408;2023-03-01T09:20:45;19.30;;;10.32;;
44508;SDS011;30214;52.246;14.408;2023-03-01T09:23:12;20.10;;;10.43;;
44508;SDS011;30214;52.246;14.408;2023-03-01T09:25:41;19.55;;;10.60;;
44508;SDS011;30214;52.246;14.408;2023-03-01T09:28:08;20.65;;;11.15;;
44508;SDS011;30214;52.246;14.408;2023-03-01T09:30:37;19.77;;;10.07;;
44508;SDS011;30214;52.246;14.408;2023-03-01T09:33:04;18.15;;;9.48;;
44508;SDS011;30214;52.246;14.408;2023-03-01T09:35:31;18.45;;;9.30;;
44508;SDS011;30214;52.246;14.408;2023-03-01T09:37:58;17.63;;;10.10;;
44508;SDS011;30214;52.246;14.408;2023-03-01T09:40:25;15.60;;;9.73;;
44508;SDS011;30214;52.246;14.408;2023-03-01T09:42:54;17.05;;;9.65;;
44508;SDS011;30214;52.246;14.408;2023-03-01T09:45:30;17.17;;;9.38;;
44508;SDS011;30214;52.246;14.408;2023-03-01T09:48:02;13.85;;;8.20;;
44508;SDS011;30214;52.246;14.408;2023-03-01T09:50:33;14.23;;;8.48;;
44508;SDS011;30214;52.246;14.408;2023-03-01T09:53:05;13.95;;;8.10;;
44508;SDS011;30214;52.246;14.408;2023-03-01T09:55:37;15.13;;;8.30;;
44508;SDS011;30214;52.246;14.408;2023-03-01T09:58:20;15.05;;;8.05;;
44508;SDS011;30214;52.246;14.408;2023-03-01T10:01:10;13.43;;;7.53;;
44508;SDS011;30214;52.246;14.408;2023-03-01T10:04:03;11.77;;;5.72;;
44508;SDS011;30214;52.246;14.408;2023-03-01T10:06:39;11.80;;;6.38;;
44508;SDS011;30214;52.246;14.408;2023-03-01T10:09:15;12.95;;;6.57;;
44508;SDS011;30214;52.246;14.408;2023-03-01T10:11:45;12.02;;;7.10;;
44508;SDS011;30214;52.246;14.408;2023-03-01T10:14:21;11.55;;;6.50;;
44508;SDS011;30214;52.246;14.408;2023-03-01T10:16:57;13.48;;;6.20;;
44508;SDS011;30214;52.246;14.408;2023-03-01T10:19:31;13.55;;;6.45;;
44508;SDS011;30214;52.246;14.408;2023-03-01T10:22:03;12.63;;;7.03;;
44508;SDS011;30214;52.246;14.408;2023-03-01T10:24:39;11.50;;;5.97;;
44508;SDS011;30214;52.246;14.408;2023-03-01T10:27:07;10.95;;;5.82;;
44508;SDS011;30214;52.246;14.408;2023-03-01T10:29:39;13.38;;;6.60;;
44508;SDS011;30214;52.246;14.408;2023-03-01T10:32:15;11.55;;;6.20;;
44508;SDS011;30214;52.246;14.408;2023-03-01T10:34:45;11.52;;;6.68;;
44508;SDS011;30214;52.246;14.408;2023-03-01T10:37:14;11.65;;;5.90;;
44508;SDS011;30214;52.246;14.408;2023-03-01T10:39:55;13.90;;;6.70;;
44508;SDS011;30214;52.246;14.408;2023-03-01T10:42:26;14.93;;;6.30;;
44508;SDS011;30214;52.246;14.408;2023-03-01T10:44:55;13.05;;;6.78;;
44508;SDS011;30214;52.246;14.408;2023-03-01T10:47:24;5.95;;;3.17;;
44508;SDS011;30214;52.246;14.408;2023-03-01T10:49:56;9.07;;;3.50;;
44508;SDS011;30214;52.246;14.408;2023-03-01T10:52:27;5.40;;;2.88;;
44508;SDS011;30214;52.246;14.408;2023-03-01T10:54:58;7.10;;;3.00;;
44508;SDS011;30214;52.246;14.408;2023-03-01T10:57:31;8.32;;;3.03;;
44508;SDS011;30214;52.246;14.408;2023-03-01T11:03:01;5.85;;;2.90;;
44508;SDS011;30214;52.246;14.408;2023-03-01T11:05:39;7.03;;;3.53;;
44508;SDS011;30214;52.246;14.408;2023-03-01T11:08:35;7.78;;;3.80;;
44508;SDS011;30214;52.246;14.408;2023-03-01T11:11:16;8.35;;;4.38;;
44508;SDS011;30214;52.246;14.408;2023-03-01T11:13:54;7.93;;;3.88;;
44508;SDS011;30214;52.246;14.408;2023-03-01T11:18:56;10.57;;;4.80;;
44508;SDS011;30214;52.246;14.408;2023-03-01T11:21:28;7.32;;;4.20;;
44508;SDS011;30214;52.246;14.408;2023-03-01T11:23:57;8.18;;;4.40;;
44508;SDS011;30214;52.246;14.408;2023-03-01T11:26:28;8.40;;;5.03;;
44508;SDS011;30214;52.246;14.408;2023-03-01T11:28:58;7.50;;;4.75;;
44508;SDS011;30214;52.246;14.408;2023-03-01T11:31:41;7.88;;;5.38;;
44508;SDS011;30214;52.246;14.408;2023-03-01T11:34:10;9.80;;;5.13;;
44508;SDS011;30214;52.246;14.408;2023-03-01T11:36:43;9.15;;;5.20;;
44508;SDS011;30214;52.246;14.408;2023-03-01T11:39:20;10.15;;;5.50;;
44508;SDS011;30214;52.246;14.408;2023-03-01T11:41:59;7.63;;;4.70;;
44508;SDS011;30214;52.246;14.408;2023-03-01T11:44:33;10.27;;;5.57;;
44508;SDS011;30214;52.246;14.408;2023-03-01T11:50:11;9.55;;;5.25;;
44508;SDS011;30214;52.246;14.408;2023-03-01T11:52:51;10.45;;;5.40;;
44508;SDS011;30214;52.246;14.408;2023-03-01T11:55:36;13.63;;;5.35;;
44508;SDS011;30214;52.246;14.408;2023-03-01T11:58:34;12.95;;;5.70;;
44508;SDS011;30214;52.246;14.408;2023-03-01T12:01:21;13.43;;;6.00;;
44508;SDS011;30214;52.246;14.408;2023-03-01T12:04:11;11.98;;;5.30;;
44508;SDS011;30214;52.246;14.408;2023-03-01T12:07:00;9.60;;;5.20;;
44508;SDS011;30214;52.246;14.408;2023-03-01T12:09:41;8.57;;;5.22;;
44508;SDS011;30214;52.246;14.408;2023-03-01T12:12:27;9.50;;;5.70;;
44508;SDS011;30214;52.246;14.408;2023-03-01T12:15:11;9.80;;;5.07;;
44508;SDS011;30214;52.246;14.408;2023-03-01T12:18:04;8.70;;;4.82;;
44508;SDS011;30214;52.246;14.408;2023-03-01T12:21:03;9.23;;;5.40;;
44508;SDS011;30214;52.246;14.408;2023-03-01T12:26:42;8.68;;;5.30;;
44508;SDS011;30214;52.246;14.408;2023-03-01T12:29:24;9.73;;;5.00;;
44508;SDS011;30214;52.246;14.408;2023-03-01T12:34:55;9.68;;;5.53;;
44508;SDS011;30214;52.246;14.408;2023-03-01T12:37:54;7.15;;;4.43;;
44508;SDS011;30214;52.246;14.408;2023-03-01T12:40:37;9.35;;;4.55;;
44508;SDS011;30214;52.246;14.408;2023-03-01T12:43:33;8.85;;;4.22;;
44508;SDS011;30214;52.246;14.408;2023-03-01T12:46:14;8.15;;;3.95;;
44508;SDS011;30214;52.246;14.408;2023-03-01T12:49:02;7.05;;;3.72;;
44508;SDS011;30214;52.246;14.408;2023-03-01T12:51:37;8.43;;;3.97;;
44508;SDS011;30214;52.246;14.408;2023-03-01T12:54:07;7.70;;;3.80;;
44508;SDS011;30214;52.246;14.408;2023-03-01T12:56:42;8.07;;;3.80;;
44508;SDS011;30214;52.246;14.408;2023-03-01T12:59:19;8.23;;;4.10;;
44508;SDS011;30214;52.246;14.408;2023-03-01T13:01:53;6.57;;;3.60;;
44508;SDS011;30214;52.246;14.408;2023-03-01T13:04:30;5.90;;;3.38;;
44508;SDS011;30214;52.246;14.408;2023-03-01T13:07:11;8.75;;;3.28;;
44508;SDS011;30214;52.246;14.408;2023-03-01T13:09:51;6.00;;;3.25;;
44508;SDS011;30214;52.246;14.408;2023-03-01T13:12:50;6.18;;;3.28;;
44508;SDS011;30214;52.246;14.408;2023-03-01T13:15:32;7.60;;;3.10;;
44508;SDS011;30214;52.246;14.408;2023-03-01T13:18:02;5.43;;;2.90;;
44508;SDS011;30214;52.246;14.408;2023-03-01T13:20:45;8.13;;;3.40;;
44508;SDS011;30214;52.246;14.408;2023-03-01T13:23:23;5.65;;;3.30;;
44508;SDS011;30214;52.246;14.408;2023-03-01T13:26:03;5.22;;;3.30;;
44508;SDS011;30214;52.246;14.408;2023-03-01T13:28:39;6.00;;;3.17;;
44508;SDS011;30214;52.246;14.408;2023-03-01T13:34:39;5.53;;;3.05;;
44508;SDS011;30214;52.246;14.408;2023-03-01T13:37:09;6.10;;;3.20;;
44508;SDS011;30214;52.246;14.408;2023-03-01T13:39:43;6.35;;;3.20;;
44508;SDS011;30214;52.246;14.408;2023-03-01T13:45:00;6.72;;;3.33;;
44508;SDS011;30214;52.246;14.408;2023-03-01T13:47:29;6.93;;;3.40;;
44508;SDS011;30214;52.246;14.408;2023-03-01T13:49:59;6.38;;;3.20;;
44508;SDS011;30214;52.246;14.408;2023-03-01T13:52:35;5.93;;;3.17;;
44508;SDS011;30214;52.246;14.408;2023-03-01T13:55:13;5.43;;;3.17;;
44508;SDS011;30214;52.246;14.408;2023-03-01T13:57:50;6.25;;;2.90;;
44508;SDS011;30214;52.246;14.408;2023-03-01T14:00:31;6.40;;;2.53;;
44508;SDS011;30214;52.246;14.408;2023-03-01T14:03:08;4.50;;;2.70;;
44508;SDS011;30214;52.246;14.408;2023-03-01T14:05:39;4.10;;;2.13;;
44508;SDS011;30214;52.246;14.408;2023-03-01T14:08:19;5.25;;;2.53;;
44508;SDS011;30214;52.246;14.408;2023-03-01T14:14:22;4.53;;;2.60;;
44508;SDS011;30214;52.246;14.408;2023-03-01T14:17:19;4.55;;;2.42;;
44508;SDS011;30214;52.246;14.408;2023-03-01T14:20:11;4.95;;;2.50;;
44508;SDS011;30214;52.246;14.408;2023-03-01T14:22:43;4.25;;;2.17;;
44508;SDS011;30214;52.246;14.408;2023-03-01T14:25:26;6.78;;;2.60;;
44508;SDS011;30214;52.246;14.408;2023-03-01T14:27:59;6.18;;;2.80;;
44508;SDS011;30214;52.246;14.408;2023-03-01T14:30:31;3.92;;;2.50;;
44508;SDS011;30214;52.246;14.408;2023-03-01T14:33:06;5.32;;;2.50;;
44508;SDS011;30214;52.246;14.408;2023-03-01T14:35:53;4.75;;;2.50;;
44508;SDS011;30214;52.246;14.408;2023-03-01T14:38:23;6.38;;;2.60;;
44508;SDS011;30214;52.246;14.408;2023-03-01T14:43:27;5.25;;;2.40;;
44508;SDS011;30214;52.246;14.408;2023-03-01T14:45:56;3.60;;;2.15;;
44508;SDS011;30214;52.246;14.408;2023-03-01T14:48:23;5.10;;;2.58;;
44508;SDS011;30214;52.246;14.408;2023-03-01T14:50:54;8.90;;;2.35;;
44508;SDS011;30214;52.246;14.408;2023-03-01T14:53:23;4.63;;;2.30;;
44508;SDS011;30214;52.246;14.408;2023-03-01T14:55:53;4.97;;;2.50;;
44508;SDS011;30214;52.246;14.408;2023-03-01T14:58:22;4.82;;;2.95;;
44508;SDS011;30214;52.246;14.408;2023-03-01T15:00:52;4.43;;;2.42;;
44508;SDS011;30214;52.246;14.408;2023-03-01T15:03:25;4.35;;;2.22;;
44508;SDS011;30214;52.246;14.408;2023-03-01T15:06:00;4.57;;;2.38;;
44508;SDS011;30214;52.246;14.408;2023-03-01T15:08:31;4.65;;;2.40;;
44508;SDS011;30214;52.246;14.408;2023-03-01T15:11:01;4.55;;;2.35;;
44508;SDS011;30214;52.246;14.408;2023-03-01T15:13:32;3.78;;;2.20;;
44508;SDS011;30214;52.246;14.408;2023-03-01T15:16:02;3.58;;;2.05;;
44508;SDS011;30214;52.246;14.408;2023-03-01T15:18:36;4.35;;;2.25;;
44508;SDS011;30214;52.246;14.408;2023-03-01T15:21:09;4.38;;;2.58;;
44508;SDS011;30214;52.246;14.408;2023-03-01T15:23:47;4.57;;;2.25;;
44508;SDS011;30214;52.246;14.408;2023-03-01T15:26:23;3.40;;;1.90;;